sensor_id;sensor_type;location;lat;lon;timestamp;temperature;humidity
65652;SHT30;52350;51.546;7.002;2022-08-19T00:00:08;18.06;84.81
65652;SHT30;52350;51.546;7.002;2022-08-19T00:02:35;18.04;84.78
65652;SHT30;52350;51.546;7.002;2022-08-19T00:05:01;18.00;85.04
65652;SHT30;52350;51.546;7.002;2022-08-19T00:07:28;17.96;85.28
65652;SHT30;52350;51.546;7.002;2022-08-19T00:09:54;17.97;85.19
65652;SHT30;52350;51.546;7.002;2022-08-19T00:12:19;17.99;85.24
65652;SHT30;52350;51.546;7.002;2022-08-19T00:14:45;17.93;85.23
65652;SHT30;52350;51.546;7.002;2022-08-19T00:17:10;17.93;85.09
65652;SHT30;52350;51.546;7.002;2022-08-19T00:19:36;17.86;85.04
65652;SHT30;52350;51.546;7.002;2022-08-19T00:22:03;17.85;85.17
65652;SHT30;52350;51.546;7.002;2022-08-19T00:24:30;17.80;85.24
65652;SHT30;52350;51.546;7.002;2022-08-19T00:26:57;17.79;85.39
65652;SHT30;52350;51.546;7.002;2022-08-19T00:29:24;17.72;85.51
65652;SHT30;52350;51.546;7.002;2022-08-19T00:31:50;17.65;85.77
65652;SHT30;52350;51.546;7.002;2022-08-19T00:34:19;17.59;86.05
65652;SHT30;52350;51.546;7.002;2022-08-19T00:36:45;17.61;86.25
65652;SHT30;52350;51.546;7.002;2022-08-19T00:39:12;17.62;86.34
65652;SHT30;52350;51.546;7.002;2022-08-19T00:41:39;17.58;86.32
65652;SHT30;52350;51.546;7.002;2022-08-19T00:44:12;17.56;86.51
65652;SHT30;52350;51.546;7.002;2022-08-19T00:46:41;17.51;86.59
65652;SHT30;52350;51.546;7.002;2022-08-19T00:49:13;17.52;86.56
65652;SHT30;52350;51.546;7.002;2022-08-19T00:51:42;17.48;86.65
65652;SHT30;52350;51.546;7.002;2022-08-19T00:54:12;17.48;86.71
65652;SHT30;52350;51.546;7.002;2022-08-19T00:56:38;17.44;86.80
65652;SHT30;52350;51.546;7.002;2022-08-19T00:59:04;17.46;86.87
65652;SHT30;52350;51.546;7.002;2022-08-19T01:01:35;17.46;86.65
65652;SHT30;52350;51.546;7.002;2022-08-19T01:04:04;17.44;86.54
65652;SHT30;52350;51.546;7.002;2022-08-19T01:06:30;17.41;86.58
65652;SHT30;52350;51.546;7.002;2022-08-19T01:08:57;17.39;86.53
65652;SHT30;52350;51.546;7.002;2022-08-19T01:11:22;17.38;86.41
65652;SHT30;52350;51.546;7.002;2022-08-19T01:13:48;17.39;86.55
65652;SHT30;52350;51.546;7.002;2022-08-19T01:16:18;17.35;86.80
65652;SHT30;52350;51.546;7.002;2022-08-19T01:18:46;17.31;86.99
65652;SHT30;52350;51.546;7.002;2022-08-19T01:24:07;17.27;87.24
65652;SHT30;52350;51.546;7.002;2022-08-19T01:26:34;17.24;87.37
65652;SHT30;52350;51.546;7.002;2022-08-19T01:29:06;17.27;87.39
65652;SHT30;52350;51.546;7.002;2022-08-19T01:31:33;17.26;87.38
65652;SHT30;52350;51.546;7.002;2022-08-19T01:33:59;17.23;87.26
65652;SHT30;52350;51.546;7.002;2022-08-19T01:36:29;17.24;87.25
65652;SHT30;52350;51.546;7.002;2022-08-19T01:38:57;17.24;87.35
65652;SHT30;52350;51.546;7.002;2022-08-19T01:41:23;17.26;87.15
65652;SHT30;52350;51.546;7.002;2022-08-19T01:43:49;17.21;87.05
65652;SHT30;52350;51.546;7.002;2022-08-19T01:46:17;17.20;87.01
65652;SHT30;52350;51.546;7.002;2022-08-19T01:48:43;17.18;87.16
65652;SHT30;52350;51.546;7.002;2022-08-19T01:51:10;17.18;87.36
65652;SHT30;52350;51.546;7.002;2022-08-19T01:53:37;17.13;87.44
65652;SHT30;52350;51.546;7.002;2022-08-19T01:56:03;17.11;87.54
65652;SHT30;52350;51.546;7.002;2022-08-19T01:58:32;17.14;87.37
65652;SHT30;52350;51.546;7.002;2022-08-19T02:01:06;17.09;87.49
65652;SHT30;52350;51.546;7.002;2022-08-19T02:03:32;17.11;87.29
65652;SHT30;52350;51.546;7.002;2022-08-19T02:06:00;17.09;87.39
65652;SHT30;52350;51.546;7.002;2022-08-19T02:08:28;17.04;87.46
65652;SHT30;52350;51.546;7.002;2022-08-19T02:10:54;17.06;87.52
65652;SHT30;52350;51.546;7.002;2022-08-19T02:13:20;17.04;87.61
65652;SHT30;52350;51.546;7.002;2022-08-19T02:15:45;17.02;87.72
65652;SHT30;52350;51.546;7.002;2022-08-19T02:18:11;16.97;87.79
65652;SHT30;52350;51.546;7.002;2022-08-19T02:20:38;16.96;87.92
65652;SHT30;52350;51.546;7.002;2022-08-19T02:23:05;16.93;88.09
65652;SHT30;52350;51.546;7.002;2022-08-19T02:25:31;16.97;88.17
65652;SHT30;52350;51.546;7.002;2022-08-19T02:27:57;16.99;87.98
65652;SHT30;52350;51.546;7.002;2022-08-19T02:30:22;16.96;87.85
65652;SHT30;52350;51.546;7.002;2022-08-19T02:32:49;16.92;87.95
65652;SHT30;52350;51.546;7.002;2022-08-19T02:35:16;16.93;88.02
65652;SHT30;52350;51.546;7.002;2022-08-19T02:37:41;16.92;88.15
65652;SHT30;52350;51.546;7.002;2022-08-19T02:40:26;16.90;87.96
65652;SHT30;52350;51.546;7.002;2022-08-19T02:42:53;16.90;87.95
65652;SHT30;52350;51.546;7.002;2022-08-19T02:45:18;16.87;88.04
65652;SHT30;52350;51.546;7.002;2022-08-19T02:47:45;16.87;88.13
65652;SHT30;52350;51.546;7.002;2022-08-19T02:50:10;16.89;88.11
65652;SHT30;52350;51.546;7.002;2022-08-19T02:52:36;16.86;88.12
65652;SHT30;52350;51.546;7.002;2022-08-19T02:55:02;16.80;88.08
65652;SHT30;52350;51.546;7.002;2022-08-19T02:57:29;16.80;88.22
65652;SHT30;52350;51.546;7.002;2022-08-19T02:59:56;16.77;88.36
65652;SHT30;52350;51.546;7.002;2022-08-19T03:02:21;16.80;88.49
65652;SHT30;52350;51.546;7.002;2022-08-19T03:04:47;16.79;88.35
65652;SHT30;52350;51.546;7.002;2022-08-19T03:07:13;16.80;88.23
65652;SHT30;52350;51.546;7.002;2022-08-19T03:09:40;16.80;88.34
65652;SHT30;52350;51.546;7.002;2022-08-19T03:12:07;16.79;88.29
65652;SHT30;52350;51.546;7.002;2022-08-19T03:14:33;16.80;88.34
65652;SHT30;52350;51.546;7.002;2022-08-19T03:16:59;16.80;88.41
65652;SHT30;52350;51.546;7.002;2022-08-19T03:19:24;16.77;88.40
65652;SHT30;52350;51.546;7.002;2022-08-19T03:21:50;16.76;88.35
65652;SHT30;52350;51.546;7.002;2022-08-19T03:24:17;16.72;88.39
65652;SHT30;52350;51.546;7.002;2022-08-19T03:26:45;16.71;88.52
65652;SHT30;52350;51.546;7.002;2022-08-19T03:29:16;16.73;88.52
65652;SHT30;52350;51.546;7.002;2022-08-19T03:31:43;16.72;88.57
65652;SHT30;52350;51.546;7.002;2022-08-19T03:34:10;16.73;88.54
65652;SHT30;52350;51.546;7.002;2022-08-19T03:36:42;16.69;88.58
65652;SHT30;52350;51.546;7.002;2022-08-19T03:39:09;16.69;88.36
65652;SHT30;52350;51.546;7.002;2022-08-19T03:41:39;16.65;88.33
65652;SHT30;52350;51.546;7.002;2022-08-19T03:44:06;16.65;88.38
65652;SHT30;52350;51.546;7.002;2022-08-19T03:46:33;16.62;88.50
65652;SHT30;52350;51.546;7.002;2022-08-19T03:49:00;16.61;88.65
65652;SHT30;52350;51.546;7.002;2022-08-19T03:51:30;16.62;88.54
65652;SHT30;52350;51.546;7.002;2022-08-19T03:53:59;16.61;88.39
65652;SHT30;52350;51.546;7.002;2022-08-19T03:56:26;16.59;88.47
65652;SHT30;52350;51.546;7.002;2022-08-19T03:58:53;16.58;88.74
65652;SHT30;52350;51.546;7.002;2022-08-19T04:01:23;16.56;88.74
65652;SHT30;52350;51.546;7.002;2022-08-19T04:03:51;16.54;88.74
65652;SHT30;52350;51.546;7.002;2022-08-19T04:06:25;16.56;88.80
65652;SHT30;52350;51.546;7.002;2022-08-19T04:08:52;16.55;89.00
65652;SHT30;52350;51.546;7.002;2022-08-19T04:11:21;16.56;89.13
65652;SHT30;52350;51.546;7.002;2022-08-19T04:13:51;16.56;88.98
65652;SHT30;52350;51.546;7.002;2022-08-19T04:16:21;16.59;88.60
65652;SHT30;52350;51.546;7.002;2022-08-19T04:18:49;16.55;88.39
65652;SHT30;52350;51.546;7.002;2022-08-19T04:21:19;16.55;88.43
65652;SHT30;52350;51.546;7.002;2022-08-19T04:23:47;16.54;88.59
65652;SHT30;52350;51.546;7.002;2022-08-19T04:26:17;16.51;88.71
65652;SHT30;52350;51.546;7.002;2022-08-19T04:28:45;16.52;88.73
65652;SHT30;52350;51.546;7.002;2022-08-19T04:31:15;16.49;88.78
65652;SHT30;52350;51.546;7.002;2022-08-19T04:33:41;16.45;88.92
65652;SHT30;52350;51.546;7.002;2022-08-19T04:36:07;16.47;89.03
65652;SHT30;52350;51.546;7.002;2022-08-19T04:38:34;16.48;88.90
65652;SHT30;52350;51.546;7.002;2022-08-19T04:41:01;16.42;88.66
65652;SHT30;52350;51.546;7.002;2022-08-19T04:43:46;16.41;88.81
65652;SHT30;52350;51.546;7.002;2022-08-19T04:46:13;16.44;88.97
65652;SHT30;52350;51.546;7.002;2022-08-19T04:48:39;16.47;89.11
65652;SHT30;52350;51.546;7.002;2022-08-19T04:51:06;16.49;88.93
65652;SHT30;52350;51.546;7.002;2022-08-19T04:53:34;16.48;88.79
65652;SHT30;52350;51.546;7.002;2022-08-19T04:56:04;16.52;88.77
65652;SHT30;52350;51.546;7.002;2022-08-19T04:58:40;16.48;88.88
65652;SHT30;52350;51.546;7.002;2022-08-19T05:01:09;16.51;89.02
65652;SHT30;52350;51.546;7.002;2022-08-19T05:03:44;16.51;89.20
65652;SHT30;52350;51.546;7.002;2022-08-19T05:06:11;16.54;89.39
65652;SHT30;52350;51.546;7.002;2022-08-19T05:08:39;16.61;89.45
65652;SHT30;52350;51.546;7.002;2022-08-19T05:11:15;16.65;89.47
65652;SHT30;52350;51.546;7.002;2022-08-19T05:13:41;16.82;89.13
65652;SHT30;52350;51.546;7.002;2022-08-19T05:16:08;16.79;89.11
65652;SHT30;52350;51.546;7.002;2022-08-19T05:18:35;16.89;89.04
65652;SHT30;52350;51.546;7.002;2022-08-19T05:21:19;17.06;88.68
65652;SHT30;52350;51.546;7.002;2022-08-19T05:24:04;17.14;88.64
65652;SHT30;52350;51.546;7.002;2022-08-19T05:26:37;17.20;88.52
65652;SHT30;52350;51.546;7.002;2022-08-19T05:29:13;17.21;88.62
65652;SHT30;52350;51.546;7.002;2022-08-19T05:31:40;17.30;88.62
65652;SHT30;52350;51.546;7.002;2022-08-19T05:34:07;17.35;88.64
65652;SHT30;52350;51.546;7.002;2022-08-19T05:36:34;17.42;88.55
65652;SHT30;52350;51.546;7.002;2022-08-19T05:39:04;17.56;88.33
65652;SHT30;52350;51.546;7.002;2022-08-19T05:41:31;17.63;88.41
65652;SHT30;52350;51.546;7.002;2022-08-19T05:43:57;17.71;88.31
65652;SHT30;52350;51.546;7.002;2022-08-19T05:46:23;17.79;88.50
65652;SHT30;52350;51.546;7.002;2022-08-19T05:48:48;17.86;88.30
65652;SHT30;52350;51.546;7.002;2022-08-19T05:51:14;17.96;88.07
65652;SHT30;52350;51.546;7.002;2022-08-19T05:53:40;18.00;87.94
65652;SHT30;52350;51.546;7.002;2022-08-19T05:56:07;18.11;87.71
65652;SHT30;52350;51.546;7.002;2022-08-19T05:58:35;18.14;87.68
65652;SHT30;52350;51.546;7.002;2022-08-19T06:01:02;18.23;87.45
65652;SHT30;52350;51.546;7.002;2022-08-19T06:03:31;18.28;87.42
65652;SHT30;52350;51.546;7.002;2022-08-19T06:05:58;18.38;87.17
65652;SHT30;52350;51.546;7.002;2022-08-19T06:08:24;18.45;87.05
65652;SHT30;52350;51.546;7.002;2022-08-19T06:10:53;18.53;87.00
65652;SHT30;52350;51.546;7.002;2022-08-19T06:13:19;18.69;86.52
65652;SHT30;52350;51.546;7.002;2022-08-19T06:15:45;18.79;86.15
65652;SHT30;52350;51.546;7.002;2022-08-19T06:18:14;18.93;85.87
65652;SHT30;52350;51.546;7.002;2022-08-19T06:20:41;19.03;85.34
65652;SHT30;52350;51.546;7.002;2022-08-19T06:23:06;19.13;84.98
65652;SHT30;52350;51.546;7.002;2022-08-19T06:25:34;19.30;84.32
65652;SHT30;52350;51.546;7.002;2022-08-19T06:28:00;19.28;84.57
65652;SHT30;52350;51.546;7.002;2022-08-19T06:30:25;19.31;84.79
65652;SHT30;52350;51.546;7.002;2022-08-19T06:32:51;19.38;84.77
65652;SHT30;52350;51.546;7.002;2022-08-19T06:35:17;19.39;84.89
65652;SHT30;52350;51.546;7.002;2022-08-19T06:37:42;19.38;85.03
65652;SHT30;52350;51.546;7.002;2022-08-19T06:40:08;19.47;84.95
65652;SHT30;52350;51.546;7.002;2022-08-19T06:42:35;19.51;84.92
65652;SHT30;52350;51.546;7.002;2022-08-19T06:45:03;19.61;84.68
65652;SHT30;52350;51.546;7.002;2022-08-19T06:47:30;19.68;84.67
65652;SHT30;52350;51.546;7.002;2022-08-19T06:49:57;19.82;84.40
65652;SHT30;52350;51.546;7.002;2022-08-19T06:52:27;19.97;83.62
65652;SHT30;52350;51.546;7.002;2022-08-19T06:54:52;20.14;83.22
65652;SHT30;52350;51.546;7.002;2022-08-19T06:57:21;20.41;82.02
65652;SHT30;52350;51.546;7.002;2022-08-19T06:59:46;20.76;80.66
65652;SHT30;52350;51.546;7.002;2022-08-19T07:02:12;20.93;80.29
65652;SHT30;52350;51.546;7.002;2022-08-19T07:04:37;21.08;79.29
65652;SHT30;52350;51.546;7.002;2022-08-19T07:07:09;21.28;79.54
65652;SHT30;52350;51.546;7.002;2022-08-19T07:09:38;21.48;78.95
65652;SHT30;52350;51.546;7.002;2022-08-19T07:12:07;21.72;78.31
65652;SHT30;52350;51.546;7.002;2022-08-19T07:14:34;22.01;77.60
65652;SHT30;52350;51.546;7.002;2022-08-19T07:17:02;22.30;75.81
65652;SHT30;52350;51.546;7.002;2022-08-19T07:19:29;22.56;74.14
65652;SHT30;52350;51.546;7.002;2022-08-19T07:21:56;22.82;74.58
65652;SHT30;52350;51.546;7.002;2022-08-19T07:24:22;22.96;73.14
65652;SHT30;52350;51.546;7.002;2022-08-19T07:26:50;23.17;72.38
65652;SHT30;52350;51.546;7.002;2022-08-19T07:29:18;23.28;71.97
65652;SHT30;52350;51.546;7.002;2022-08-19T07:31:47;23.24;71.86
65652;SHT30;52350;51.546;7.002;2022-08-19T07:34:13;23.24;72.36
65652;SHT30;52350;51.546;7.002;2022-08-19T07:36:42;23.21;71.69
65652;SHT30;52350;51.546;7.002;2022-08-19T07:39:13;23.13;71.99
65652;SHT30;52350;51.546;7.002;2022-08-19T07:41:50;23.06;72.30
65652;SHT30;52350;51.546;7.002;2022-08-19T07:44:16;23.02;72.70
65652;SHT30;52350;51.546;7.002;2022-08-19T07:46:45;23.02;72.80
65652;SHT30;52350;51.546;7.002;2022-08-19T07:49:14;23.07;72.27
65652;SHT30;52350;51.546;7.002;2022-08-19T07:51:55;23.03;71.99
65652;SHT30;52350;51.546;7.002;2022-08-19T07:54:25;22.97;72.39
65652;SHT30;52350;51.546;7.002;2022-08-19T07:56:52;23.06;73.32
65652;SHT30;52350;51.546;7.002;2022-08-19T07:59:18;23.42;72.76
65652;SHT30;52350;51.546;7.002;2022-08-19T08:01:45;23.82;70.84
65652;SHT30;52350;51.546;7.002;2022-08-19T08:04:11;24.09;69.11
65652;SHT30;52350;51.546;7.002;2022-08-19T08:06:55;24.27;68.27
65652;SHT30;52350;51.546;7.002;2022-08-19T08:09:40;24.41;67.61
65652;SHT30;52350;51.546;7.002;2022-08-19T08:12:12;24.51;68.01
65652;SHT30;52350;51.546;7.002;2022-08-19T08:14:48;24.71;67.75
65652;SHT30;52350;51.546;7.002;2022-08-19T08:17:16;24.89;66.51
65652;SHT30;52350;51.546;7.002;2022-08-19T08:19:43;25.23;66.21
65652;SHT30;52350;51.546;7.002;2022-08-19T08:22:10;25.38;63.60
65652;SHT30;52350;51.546;7.002;2022-08-19T08:24:57;25.39;63.83
65652;SHT30;52350;51.546;7.002;2022-08-19T08:27:26;25.34;63.63
65652;SHT30;52350;51.546;7.002;2022-08-19T08:29:54;25.37;64.30
65652;SHT30;52350;51.546;7.002;2022-08-19T08:32:20;25.45;64.13
65652;SHT30;52350;51.546;7.002;2022-08-19T08:34:45;25.57;63.90
65652;SHT30;52350;51.546;7.002;2022-08-19T08:37:10;25.82;62.77
65652;SHT30;52350;51.546;7.002;2022-08-19T08:39:36;25.89;62.89
65652;SHT30;52350;51.546;7.002;2022-08-19T08:47:23;25.61;62.56
65652;SHT30;52350;51.546;7.002;2022-08-19T08:49:58;25.45;63.04
65652;SHT30;52350;51.546;7.002;2022-08-19T08:52:34;25.31;62.74
65652;SHT30;52350;51.546;7.002;2022-08-19T08:55:08;25.23;63.15
65652;SHT30;52350;51.546;7.002;2022-08-19T08:57:39;25.33;63.80
65652;SHT30;52350;51.546;7.002;2022-08-19T09:00:37;25.55;63.12
65652;SHT30;52350;51.546;7.002;2022-08-19T09:06:17;26.64;56.96
65652;SHT30;52350;51.546;7.002;2022-08-19T09:09:09;26.81;56.83
65652;SHT30;52350;51.546;7.002;2022-08-19T09:11:40;26.95;55.69
65652;SHT30;52350;51.546;7.002;2022-08-19T09:14:34;26.98;55.99
65652;SHT30;52350;51.546;7.002;2022-08-19T09:17:10;26.73;55.47
65652;SHT30;52350;51.546;7.002;2022-08-19T09:19:51;26.47;56.88
65652;SHT30;52350;51.546;7.002;2022-08-19T09:22:18;26.23;57.92
65652;SHT30;52350;51.546;7.002;2022-08-19T09:24:47;26.19;57.65
65652;SHT30;52350;51.546;7.002;2022-08-19T09:27:19;26.13;56.95
65652;SHT30;52350;51.546;7.002;2022-08-19T09:29:49;26.27;55.72
65652;SHT30;52350;51.546;7.002;2022-08-19T09:32:15;26.30;56.36
65652;SHT30;52350;51.546;7.002;2022-08-19T09:34:42;26.41;55.35
65652;SHT30;52350;51.546;7.002;2022-08-19T09:37:08;26.48;56.47
65652;SHT30;52350;51.546;7.002;2022-08-19T09:39:34;26.58;56.40
65652;SHT30;52350;51.546;7.002;2022-08-19T09:41:59;26.58;57.12
65652;SHT30;52350;51.546;7.002;2022-08-19T09:44:25;26.67;56.53
65652;SHT30;52350;51.546;7.002;2022-08-19T09:46:50;26.83;54.41
65652;SHT30;52350;51.546;7.002;2022-08-19T09:49:16;26.71;53.51
65652;SHT30;52350;51.546;7.002;2022-08-19T09:51:44;26.59;54.69
65652;SHT30;52350;51.546;7.002;2022-08-19T09:54:12;26.69;54.19
65652;SHT30;52350;51.546;7.002;2022-08-19T09:56:39;26.89;54.16
65652;SHT30;52350;51.546;7.002;2022-08-19T09:59:04;27.07;54.27
65652;SHT30;52350;51.546;7.002;2022-08-19T10:01:30;27.20;54.16
65652;SHT30;52350;51.546;7.002;2022-08-19T10:03:58;27.29;53.60
65652;SHT30;52350;51.546;7.002;2022-08-19T10:06:25;27.34;53.54
65652;SHT30;52350;51.546;7.002;2022-08-19T10:08:55;27.33;54.18
65652;SHT30;52350;51.546;7.002;2022-08-19T10:11:21;27.52;54.85
65652;SHT30;52350;51.546;7.002;2022-08-19T10:13:47;27.78;53.68
65652;SHT30;52350;51.546;7.002;2022-08-19T10:16:14;27.69;52.98
65652;SHT30;52350;51.546;7.002;2022-08-19T10:18:42;27.54;52.90
65652;SHT30;52350;51.546;7.002;2022-08-19T10:21:10;27.58;53.52
65652;SHT30;52350;51.546;7.002;2022-08-19T10:23:36;27.47;52.91
65652;SHT30;52350;51.546;7.002;2022-08-19T10:26:04;27.24;54.03
65652;SHT30;52350;51.546;7.002;2022-08-19T10:28:32;27.35;54.59
65652;SHT30;52350;51.546;7.002;2022-08-19T10:31:03;27.62;53.07
65652;SHT30;52350;51.546;7.002;2022-08-19T10:33:33;27.85;52.97
65652;SHT30;52350;51.546;7.002;2022-08-19T10:36:00;28.07;52.38
65652;SHT30;52350;51.546;7.002;2022-08-19T10:38:29;28.00;51.04
65652;SHT30;52350;51.546;7.002;2022-08-19T10:40:56;27.73;51.47
65652;SHT30;52350;51.546;7.002;2022-08-19T10:43:22;27.45;52.86
65652;SHT30;52350;51.546;7.002;2022-08-19T10:45:54;27.40;53.98
65652;SHT30;52350;51.546;7.002;2022-08-19T10:48:24;27.44;52.36
65652;SHT30;52350;51.546;7.002;2022-08-19T10:50:50;27.52;53.28
65652;SHT30;52350;51.546;7.002;2022-08-19T10:53:34;27.79;53.11
65652;SHT30;52350;51.546;7.002;2022-08-19T10:55:59;28.14;52.04
65652;SHT30;52350;51.546;7.002;2022-08-19T10:58:44;28.58;50.53
65652;SHT30;52350;51.546;7.002;2022-08-19T11:01:09;28.91;50.16
65652;SHT30;52350;51.546;7.002;2022-08-19T11:03:35;28.72;48.16
65652;SHT30;52350;51.546;7.002;2022-08-19T11:06:04;28.41;50.40
65652;SHT30;52350;51.546;7.002;2022-08-19T11:08:34;27.93;51.56
65652;SHT30;52350;51.546;7.002;2022-08-19T11:11:03;27.63;52.46
65652;SHT30;52350;51.546;7.002;2022-08-19T11:13:31;27.52;53.51
65652;SHT30;52350;51.546;7.002;2022-08-19T11:16:03;27.31;52.79
65652;SHT30;52350;51.546;7.002;2022-08-19T11:18:32;27.10;53.00
65652;SHT30;52350;51.546;7.002;2022-08-19T11:23:35;27.78;51.82
65652;SHT30;52350;51.546;7.002;2022-08-19T11:26:01;28.31;50.02
65652;SHT30;52350;51.546;7.002;2022-08-19T11:28:26;28.78;48.27
65652;SHT30;52350;51.546;7.002;2022-08-19T11:30:52;29.29;47.23
65652;SHT30;52350;51.546;7.002;2022-08-19T11:33:17;29.71;47.36
65652;SHT30;52350;51.546;7.002;2022-08-19T11:35:44;29.92;46.27
65652;SHT30;52350;51.546;7.002;2022-08-19T11:38:09;30.19;47.18
65652;SHT30;52350;51.546;7.002;2022-08-19T11:40:36;30.89;45.20
65652;SHT30;52350;51.546;7.002;2022-08-19T11:43:02;31.33;42.85
65652;SHT30;52350;51.546;7.002;2022-08-19T11:45:28;31.69;42.80
65652;SHT30;52350;51.546;7.002;2022-08-19T11:47:55;32.84;39.96
65652;SHT30;52350;51.546;7.002;2022-08-19T11:50:21;32.54;40.89
65652;SHT30;52350;51.546;7.002;2022-08-19T11:52:48;32.09;41.06
65652;SHT30;52350;51.546;7.002;2022-08-19T11:55:14;33.11;40.19
65652;SHT30;52350;51.546;7.002;2022-08-19T11:57:40;34.43;37.18
65652;SHT30;52350;51.546;7.002;2022-08-19T12:00:06;35.35;35.15
65652;SHT30;52350;51.546;7.002;2022-08-19T12:02:32;36.01;34.61
65652;SHT30;52350;51.546;7.002;2022-08-19T12:04:58;36.87;32.21
65652;SHT30;52350;51.546;7.002;2022-08-19T12:07:26;37.55;31.98
65652;SHT30;52350;51.546;7.002;2022-08-19T12:09:52;38.18;31.06
65652;SHT30;52350;51.546;7.002;2022-08-19T12:12:17;37.93;31.50
65652;SHT30;52350;51.546;7.002;2022-08-19T12:14:42;38.27;30.83
65652;SHT30;52350;51.546;7.002;2022-08-19T12:17:08;37.94;30.74
65652;SHT30;52350;51.546;7.002;2022-08-19T12:19:36;38.45;30.78
65652;SHT30;52350;51.546;7.002;2022-08-19T12:22:01;39.07;30.03
65652;SHT30;52350;51.546;7.002;2022-08-19T12:24:29;39.18;29.78
65652;SHT30;52350;51.546;7.002;2022-08-19T12:26:57;38.29;29.24
65652;SHT30;52350;51.546;7.002;2022-08-19T12:29:23;37.17;30.98
65652;SHT30;52350;51.546;7.002;2022-08-19T12:31:53;36.60;32.06
65652;SHT30;52350;51.546;7.002;2022-08-19T12:34:25;36.66;32.14
65652;SHT30;52350;51.546;7.002;2022-08-19T12:36:51;36.81;31.84
65652;SHT30;52350;51.546;7.002;2022-08-19T12:39:16;36.87;31.76
65652;SHT30;52350;51.546;7.002;2022-08-19T12:41:42;36.83;30.73
65652;SHT30;52350;51.546;7.002;2022-08-19T12:44:07;36.59;30.85
65652;SHT30;52350;51.546;7.002;2022-08-19T12:46:33;36.49;31.36
65652;SHT30;52350;51.546;7.002;2022-08-19T12:48:58;36.64;30.78
65652;SHT30;52350;51.546;7.002;2022-08-19T12:51:24;36.27;31.41
65652;SHT30;52350;51.546;7.002;2022-08-19T12:53:51;36.08;31.38
65652;SHT30;52350;51.546;7.002;2022-08-19T12:56:17;36.39;31.45
65652;SHT30;52350;51.546;7.002;2022-08-19T12:58:44;35.50;32.85
65652;SHT30;52350;51.546;7.002;2022-08-19T13:01:13;33.88;34.68
65652;SHT30;52350;51.546;7.002;2022-08-19T13:03:41;32.54;37.10
65652;SHT30;52350;51.546;7.002;2022-08-19T13:06:08;31.54;38.48
65652;SHT30;52350;51.546;7.002;2022-08-19T13:08:34;31.00;39.48
65652;SHT30;52350;51.546;7.002;2022-08-19T13:11:11;30.67;40.53
65652;SHT30;52350;51.546;7.002;2022-08-19T13:13:40;30.40;39.88
65652;SHT30;52350;51.546;7.002;2022-08-19T13:16:07;30.64;39.54
65652;SHT30;52350;51.546;7.002;2022-08-19T13:18:36;30.51;39.67
65652;SHT30;52350;51.546;7.002;2022-08-19T13:21:03;30.12;40.40
65652;SHT30;52350;51.546;7.002;2022-08-19T13:23:29;29.89;41.29
65652;SHT30;52350;51.546;7.002;2022-08-19T13:25:59;29.96;41.47
65652;SHT30;52350;51.546;7.002;2022-08-19T13:28:25;30.02;40.28
65652;SHT30;52350;51.546;7.002;2022-08-19T13:30:51;30.68;38.66
65652;SHT30;52350;51.546;7.002;2022-08-19T13:33:35;30.81;38.52
65652;SHT30;52350;51.546;7.002;2022-08-19T13:36:01;31.12;39.23
65652;SHT30;52350;51.546;7.002;2022-08-19T13:38:27;31.64;38.94
65652;SHT30;52350;51.546;7.002;2022-08-19T13:40:53;31.60;39.11
65652;SHT30;52350;51.546;7.002;2022-08-19T13:43:21;30.98;39.23
65652;SHT30;52350;51.546;7.002;2022-08-19T13:45:48;30.40;40.91
65652;SHT30;52350;51.546;7.002;2022-08-19T13:48:20;29.89;41.42
65652;SHT30;52350;51.546;7.002;2022-08-19T13:50:46;29.71;42.39
65652;SHT30;52350;51.546;7.002;2022-08-19T13:53:13;29.65;42.30
65652;SHT30;52350;51.546;7.002;2022-08-19T13:55:40;29.44;43.00
65652;SHT30;52350;51.546;7.002;2022-08-19T13:58:07;29.21;43.21
65652;SHT30;52350;51.546;7.002;2022-08-19T14:00:35;29.23;43.17
65652;SHT30;52350;51.546;7.002;2022-08-19T14:03:05;29.20;42.37
65652;SHT30;52350;51.546;7.002;2022-08-19T14:05:31;29.19;42.50
65652;SHT30;52350;51.546;7.002;2022-08-19T14:07:57;29.29;43.13
65652;SHT30;52350;51.546;7.002;2022-08-19T14:10:23;29.38;42.35
65652;SHT30;52350;51.546;7.002;2022-08-19T14:12:59;29.34;42.73
65652;SHT30;52350;51.546;7.002;2022-08-19T14:15:26;29.31;42.27
65652;SHT30;52350;51.546;7.002;2022-08-19T14:17:52;29.31;41.59
65652;SHT30;52350;51.546;7.002;2022-08-19T14:20:19;29.33;41.65
65652;SHT30;52350;51.546;7.002;2022-08-19T14:22:45;29.24;41.23
65652;SHT30;52350;51.546;7.002;2022-08-19T14:25:13;29.03;42.71
65652;SHT30;52350;51.546;7.002;2022-08-19T14:27:42;28.95;42.34
65652;SHT30;52350;51.546;7.002;2022-08-19T14:30:09;28.78;43.10
65652;SHT30;52350;51.546;7.002;2022-08-19T14:32:37;28.74;43.50
65652;SHT30;52350;51.546;7.002;2022-08-19T14:35:03;28.74;43.14
65652;SHT30;52350;51.546;7.002;2022-08-19T14:37:29;28.68;42.47
65652;SHT30;52350;51.546;7.002;2022-08-19T14:39:54;28.64;43.96
65652;SHT30;52350;51.546;7.002;2022-08-19T14:42:20;28.51;44.53
65652;SHT30;52350;51.546;7.002;2022-08-19T14:44:46;28.41;44.71
65652;SHT30;52350;51.546;7.002;2022-08-19T14:47:11;28.31;44.75
65652;SHT30;52350;51.546;7.002;2022-08-19T14:49:37;28.40;45.39
65652;SHT30;52350;51.546;7.002;2022-08-19T14:52:04;28.47;45.60
65652;SHT30;52350;51.546;7.002;2022-08-19T14:54:30;28.54;45.69
65652;SHT30;52350;51.546;7.002;2022-08-19T14:56:55;28.61;45.87
65652;SHT30;52350;51.546;7.002;2022-08-19T14:59:21;28.51;45.68
65652;SHT30;52350;51.546;7.002;2022-08-19T15:01:47;28.44;45.98
65652;SHT30;52350;51.546;7.002;2022-08-19T15:04:12;28.41;45.98
65652;SHT30;52350;51.546;7.002;2022-08-19T15:06:37;28.27;45.54
65652;SHT30;52350;51.546;7.002;2022-08-19T15:09:04;28.14;45.78
65652;SHT30;52350;51.546;7.002;2022-08-19T15:11:30;28.10;45.51
65652;SHT30;52350;51.546;7.002;2022-08-19T15:13:57;28.16;46.21
65652;SHT30;52350;51.546;7.002;2022-08-19T15:16:23;28.28;45.37
65652;SHT30;52350;51.546;7.002;2022-08-19T15:18:51;28.28;45.71
65652;SHT30;52350;51.546;7.002;2022-08-19T15:21:19;28.28;46.37
65652;SHT30;52350;51.546;7.002;2022-08-19T15:23:45;28.34;46.54
65652;SHT30;52350;51.546;7.002;2022-08-19T15:26:13;28.30;45.57
65652;SHT30;52350;51.546;7.002;2022-08-19T15:28:40;28.23;45.64
65652;SHT30;52350;51.546;7.002;2022-08-19T15:31:05;28.05;45.87
65652;SHT30;52350;51.546;7.002;2022-08-19T15:33:32;27.92;45.47
65652;SHT30;52350;51.546;7.002;2022-08-19T15:36:01;27.85;45.73
65652;SHT30;52350;51.546;7.002;2022-08-19T15:38:29;27.79;45.27
65652;SHT30;52350;51.546;7.002;2022-08-19T15:40:55;27.62;45.58
65652;SHT30;52350;51.546;7.002;2022-08-19T15:43:40;27.44;46.71
65652;SHT30;52350;51.546;7.002;2022-08-19T15:46:06;27.24;47.18
65652;SHT30;52350;51.546;7.002;2022-08-19T15:48:32;27.18;47.36